createdAt,value
2023-02-15T00:02:28.659Z,4.30
2023-02-15T00:05:00.563Z,5.80
2023-02-15T00:07:32.412Z,5.73
2023-02-15T00:10:05.039Z,5.00
2023-02-15T00:12:36.815Z,6.07
2023-02-15T00:15:08.891Z,4.67
2023-02-15T00:17:40.748Z,6.33
2023-02-15T00:20:12.602Z,5.03
2023-02-15T00:22:44.363Z,5.53
2023-02-15T00:25:16.126Z,5.13
2023-02-15T00:27:47.867Z,6.23
2023-02-15T00:30:19.706Z,4.30
2023-02-15T00:32:51.450Z,5.70
2023-02-15T00:35:23.176Z,5.23
2023-02-15T00:37:54.942Z,4.60
2023-02-15T00:40:26.723Z,4.87
2023-02-15T00:43:00.198Z,6.33
2023-02-15T00:45:31.904Z,6.40
2023-02-15T00:48:03.821Z,5.33
2023-02-15T00:50:35.579Z,5.53
2023-02-15T00:53:09.317Z,4.47
2023-02-15T00:55:41.296Z,5.23
2023-02-15T00:58:14.022Z,4.73
2023-02-15T01:00:47.519Z,5.43
2023-02-15T01:03:21.213Z,5.90
2023-02-15T01:05:52.942Z,5.20
2023-02-15T01:08:25.199Z,5.63
2023-02-15T01:10:57.361Z,5.20
2023-02-15T01:13:29.643Z,5.40
2023-02-15T01:16:02.610Z,5.90
2023-02-15T01:18:35.219Z,6.27
2023-02-15T01:21:26.591Z,5.37
2023-02-15T01:23:58.318Z,5.17
2023-02-15T01:26:30.060Z,4.80
2023-02-15T01:29:01.785Z,4.97
2023-02-15T01:31:33.543Z,5.53
2023-02-15T01:34:05.348Z,6.37
2023-02-15T01:36:37.152Z,5.37
2023-02-15T01:39:10.330Z,4.97
2023-02-15T01:41:42.067Z,5.57
2023-02-15T01:44:51.654Z,5.57
2023-02-15T01:47:41.957Z,5.37
2023-02-15T01:50:21.011Z,5.67
2023-02-15T01:52:58.542Z,5.13
2023-02-15T01:55:37.202Z,5.50
2023-02-15T01:58:09.878Z,5.07
2023-02-15T02:00:41.746Z,5.67
2023-02-15T02:03:14.307Z,5.37
2023-02-15T02:05:46.050Z,6.10
2023-02-15T02:08:18.308Z,6.00
2023-02-15T02:10:50.066Z,6.23
2023-02-15T02:13:21.966Z,4.97
2023-02-15T02:16:10.021Z,5.63
2023-02-15T02:19:00.301Z,4.70
2023-02-15T02:21:51.020Z,5.20
2023-02-15T02:25:03.532Z,5.43
2023-02-15T02:28:11.053Z,6.20
2023-02-15T02:31:04.492Z,5.00
2023-02-15T02:33:42.294Z,4.37
2023-02-15T02:36:21.641Z,4.10
2023-02-15T02:39:13.756Z,4.77
2023-02-15T02:42:17.920Z,5.40
2023-02-15T02:44:57.870Z,5.43
2023-02-15T02:47:44.029Z,4.30
2023-02-15T02:50:19.476Z,5.67
2023-02-15T02:52:53.342Z,5.47
2023-02-15T02:55:54.748Z,5.07
2023-02-15T02:58:35.420Z,4.77
2023-02-15T03:01:25.807Z,6.47
2023-02-15T03:04:02.142Z,5.27
2023-02-15T03:06:47.941Z,5.60
2023-02-15T03:09:25.137Z,4.90
2023-02-15T03:11:56.883Z,6.57
2023-02-15T03:14:29.221Z,7.07
2023-02-15T03:17:02.352Z,5.87
2023-02-15T03:19:36.641Z,5.97
2023-02-15T03:22:36.717Z,6.67
2023-02-15T03:25:17.928Z,5.57
2023-02-15T03:28:00.058Z,6.10
2023-02-15T03:30:33.445Z,6.80
2023-02-15T03:33:06.996Z,6.03
2023-02-15T03:35:59.047Z,5.63
2023-02-15T03:38:41.861Z,5.03
2023-02-15T03:41:15.530Z,4.83
2023-02-15T03:44:06.396Z,5.30
2023-02-15T03:46:55.583Z,6.00
2023-02-15T03:49:30.339Z,5.53
2023-02-15T03:52:04.844Z,5.10
2023-02-15T03:54:43.272Z,5.77
2023-02-15T03:57:33.668Z,5.67
2023-02-15T04:00:26.453Z,5.00
2023-02-15T04:03:06.792Z,5.70
2023-02-15T04:05:38.843Z,6.03
2023-02-15T04:08:11.915Z,6.17
2023-02-15T04:10:57.171Z,5.97
2023-02-15T04:13:33.900Z,6.67
2023-02-15T04:16:07.360Z,5.80
2023-02-15T04:19:02.506Z,6.07
2023-02-15T04:21:52.779Z,5.93
2023-02-15T04:24:43.407Z,5.10
2023-02-15T04:27:16.299Z,4.10
2023-02-15T04:29:50.741Z,5.50
2023-02-15T04:32:22.619Z,4.67
2023-02-15T04:34:54.442Z,5.07
2023-02-15T04:37:26.319Z,4.77
2023-02-15T04:39:59.438Z,4.97
2023-02-15T04:42:31.217Z,6.20
2023-02-15T04:45:03.603Z,3.97
2023-02-15T04:47:35.532Z,5.33
2023-02-15T04:50:07.783Z,4.50
2023-02-15T04:52:39.706Z,3.63
2023-02-15T04:55:11.482Z,4.97
2023-02-15T04:57:43.242Z,4.67
2023-02-15T05:00:15.203Z,4.80
2023-02-15T05:02:46.956Z,3.73
2023-02-15T05:05:18.705Z,5.50
2023-02-15T05:07:50.664Z,4.97
2023-02-15T05:10:22.805Z,5.43
2023-02-15T05:12:54.489Z,4.97
2023-02-15T05:15:26.193Z,4.57
2023-02-15T05:17:57.918Z,4.33
2023-02-15T05:20:29.619Z,4.63
2023-02-15T05:23:01.317Z,5.50
2023-02-15T05:25:51.813Z,5.80
2023-02-15T05:28:25.856Z,4.90
2023-02-15T05:31:03.727Z,4.40
2023-02-15T05:33:35.947Z,4.83
2023-02-15T05:36:08.374Z,5.03
2023-02-15T05:38:40.833Z,5.13
2023-02-15T05:41:12.716Z,5.90
2023-02-15T05:43:44.474Z,5.33
2023-02-15T05:46:16.252Z,4.70
2023-02-15T05:48:48.011Z,5.30
2023-02-15T05:51:19.704Z,5.53
2023-02-15T05:53:51.390Z,4.83
2023-02-15T05:56:23.113Z,6.53
2023-02-15T05:58:55.861Z,4.87
2023-02-15T06:01:27.633Z,4.77
2023-02-15T06:03:59.375Z,4.03
2023-02-15T06:06:31.076Z,5.70
2023-02-15T06:09:03.008Z,4.70
2023-02-15T06:11:34.721Z,6.03
2023-02-15T06:14:06.679Z,5.60
2023-02-15T06:16:38.606Z,5.67
2023-02-15T06:19:10.305Z,5.03
2023-02-15T06:21:42.053Z,4.97
2023-02-15T06:24:13.936Z,5.47
2023-02-15T06:26:45.644Z,5.97
2023-02-15T06:29:17.481Z,4.43
2023-02-15T06:31:49.314Z,5.07
2023-02-15T06:34:21.099Z,5.20
2023-02-15T06:36:52.923Z,6.43
2023-02-15T06:39:24.849Z,4.73
2023-02-15T06:41:56.678Z,4.77
2023-02-15T06:44:28.395Z,5.90
2023-02-15T06:47:00.135Z,4.07
2023-02-15T06:49:31.916Z,4.40
2023-02-15T06:52:04.444Z,6.20
2023-02-15T06:54:36.207Z,4.73
2023-02-15T06:57:08.255Z,4.33
2023-02-15T06:59:39.957Z,4.80
2023-02-15T07:02:15.222Z,5.43
2023-02-15T07:04:47.253Z,4.33
2023-02-15T07:07:19.394Z,5.00
2023-02-15T07:09:51.074Z,4.67
2023-02-15T07:12:41.590Z,5.03
2023-02-15T07:15:16.662Z,4.80
2023-02-15T07:17:49.840Z,4.40
2023-02-15T07:20:23.495Z,4.97
2023-02-15T07:22:55.327Z,4.93
2023-02-15T07:25:27.016Z,5.17
2023-02-15T07:28:00.245Z,5.60
2023-02-15T07:30:32.145Z,4.60
2023-02-15T07:33:22.747Z,4.70
2023-02-15T07:35:58.057Z,4.57
2023-02-15T07:38:37.833Z,5.27
2023-02-15T07:41:12.391Z,4.07
2023-02-15T07:43:46.010Z,4.13
2023-02-15T07:46:18.724Z,4.53
2023-02-15T07:48:50.647Z,4.83
2023-02-15T07:51:22.372Z,3.47
2023-02-15T07:53:54.357Z,4.00
2023-02-15T07:56:26.107Z,4.43
2023-02-15T07:58:59.089Z,5.03
2023-02-15T08:01:33.880Z,5.70
2023-02-15T08:04:07.386Z,5.03
2023-02-15T08:06:39.364Z,5.07
2023-02-15T08:09:11.765Z,4.77
2023-02-15T08:11:43.709Z,4.67
2023-02-15T08:14:24.355Z,5.33
2023-02-15T08:16:57.632Z,4.33
2023-02-15T08:19:32.802Z,5.30
2023-02-15T08:22:07.770Z,4.87
2023-02-15T08:24:39.728Z,5.47
2023-02-15T08:27:12.163Z,5.00
2023-02-15T08:29:43.974Z,5.90
2023-02-15T08:32:15.815Z,5.43
2023-02-15T08:34:48.158Z,5.33
2023-02-15T08:37:19.879Z,5.27
2023-02-15T08:39:51.726Z,4.97
2023-02-15T08:42:23.437Z,4.13
2023-02-15T08:44:55.142Z,5.23
2023-02-15T08:47:26.961Z,4.27
2023-02-15T08:49:58.653Z,5.03
2023-02-15T08:52:30.420Z,6.37
2023-02-15T08:55:02.177Z,5.03
2023-02-15T08:57:33.871Z,6.23
2023-02-15T09:00:06.310Z,6.90
2023-02-15T09:02:38.118Z,4.70
2023-02-15T09:05:10.076Z,6.23
2023-02-15T09:07:41.818Z,4.10
2023-02-15T09:10:13.521Z,5.53
2023-02-15T09:12:45.227Z,6.63
2023-02-15T09:15:17.018Z,5.33
2023-02-15T09:17:48.722Z,6.23
2023-02-15T09:20:20.400Z,4.77
2023-02-15T09:22:56.968Z,4.73
2023-02-15T09:25:29.833Z,4.60
2023-02-15T09:28:01.591Z,5.17
2023-02-15T09:30:33.380Z,5.13
2023-02-15T09:33:05.339Z,5.60
2023-02-15T09:35:37.048Z,4.40
2023-02-15T09:38:09.993Z,5.57
2023-02-15T09:41:16.217Z,5.60
2023-02-15T09:44:23.108Z,5.90
2023-02-15T09:47:06.122Z,4.87
2023-02-15T09:50:09.937Z,6.00
2023-02-15T09:53:09.459Z,6.10
2023-02-15T09:55:56.632Z,5.20
2023-02-15T09:58:56.385Z,5.83
2023-02-15T10:01:30.890Z,4.97
2023-02-15T10:04:28.890Z,5.63
2023-02-15T10:07:03.658Z,6.03
2023-02-15T10:09:44.430Z,5.47
2023-02-15T10:12:31.216Z,5.70
2023-02-15T10:15:25.161Z,5.53
2023-02-15T10:17:59.831Z,5.97
2023-02-15T10:20:40.681Z,5.73
2023-02-15T10:23:37.914Z,5.47
2023-02-15T10:26:17.527Z,5.10
2023-02-15T10:29:18.299Z,4.47
2023-02-15T10:32:02.134Z,4.70
2023-02-15T10:34:40.318Z,6.13
2023-02-15T10:37:41.365Z,4.80
2023-02-15T10:40:28.028Z,5.60
2023-02-15T10:43:32.489Z,5.13
2023-02-15T10:46:20.820Z,5.77
2023-02-15T10:49:24.315Z,5.33
2023-02-15T10:52:24.386Z,5.03
2023-02-15T10:55:31.831Z,7.57
2023-02-15T10:58:27.978Z,6.27
2023-02-15T11:01:13.981Z,6.47
2023-02-15T11:03:55.443Z,5.17
2023-02-15T11:06:28.172Z,6.37
2023-02-15T11:09:09.473Z,5.83
2023-02-15T11:11:44.624Z,5.67
2023-02-15T11:14:24.657Z,6.07
2023-02-15T11:17:03.213Z,6.17
2023-02-15T11:19:40.048Z,5.63
2023-02-15T11:22:12.589Z,5.70
2023-02-15T11:24:46.792Z,5.93
2023-02-15T11:27:23.118Z,5.37
2023-02-15T11:30:11.552Z,5.93
2023-02-15T11:32:46.985Z,5.60
2023-02-15T11:35:30.507Z,5.20
2023-02-15T11:38:14.242Z,4.67
2023-02-15T11:40:52.404Z,4.43
2023-02-15T11:43:36.894Z,6.30
2023-02-15T11:46:13.141Z,6.37
2023-02-15T11:48:45.131Z,4.53
2023-02-15T11:51:20.805Z,5.40
2023-02-15T11:53:53.594Z,6.23
2023-02-15T11:56:26.728Z,4.67
2023-02-15T11:59:21.117Z,5.73
2023-02-15T12:01:52.832Z,6.33
2023-02-15T12:04:35.535Z,6.37
2023-02-15T12:07:28.717Z,5.97
2023-02-15T12:10:25.651Z,4.90
2023-02-15T12:13:18.507Z,4.63
2023-02-15T12:15:53.426Z,5.47
2023-02-15T12:18:41.358Z,5.57
2023-02-15T12:21:24.494Z,6.43
2023-02-15T12:24:10.598Z,6.73
2023-02-15T12:26:42.392Z,8.20
2023-02-15T12:29:18.403Z,6.80
2023-02-15T12:31:52.689Z,5.73
2023-02-15T12:34:31.958Z,7.53
2023-02-15T12:37:15.688Z,7.17
2023-02-15T12:39:55.022Z,7.03
2023-02-15T12:42:30.105Z,7.23
2023-02-15T12:45:25.669Z,6.90
2023-02-15T12:48:17.639Z,5.90
2023-02-15T12:50:55.776Z,5.63
2023-02-15T12:53:34.217Z,6.90
2023-02-15T12:56:09.896Z,6.07
2023-02-15T12:58:42.817Z,7.33
2023-02-15T13:01:17.588Z,6.30
2023-02-15T13:03:54.784Z,7.00
2023-02-15T13:06:28.526Z,7.03
2023-02-15T13:09:18.858Z,6.33
2023-02-15T13:11:50.649Z,7.70
2023-02-15T13:14:33.013Z,6.73
2023-02-15T13:17:08.709Z,7.10
2023-02-15T13:19:48.850Z,6.50
2023-02-15T13:22:25.256Z,8.03
2023-02-15T13:25:05.642Z,8.03
2023-02-15T13:27:40.969Z,6.53
2023-02-15T13:30:28.199Z,7.53
2023-02-15T13:33:06.137Z,6.80
2023-02-15T13:36:12.580Z,7.23
2023-02-15T13:38:51.658Z,6.27
2023-02-15T13:41:44.711Z,8.87
2023-02-15T13:44:48.484Z,6.97
2023-02-15T13:47:49.392Z,7.23
2023-02-15T13:50:36.552Z,7.00
2023-02-15T13:53:08.247Z,7.10
2023-02-15T13:55:56.148Z,8.23
2023-02-15T13:58:53.154Z,6.60
2023-02-15T14:01:40.042Z,6.70
2023-02-15T14:04:32.831Z,7.67
2023-02-15T14:07:19.040Z,7.70
2023-02-15T14:10:01.543Z,6.67
2023-02-15T14:12:54.282Z,7.17
2023-02-15T14:15:46.620Z,7.40
2023-02-15T14:18:30.499Z,7.03
2023-02-15T14:21:31.545Z,7.87
2023-02-15T14:24:19.291Z,7.63
2023-02-15T14:27:01.796Z,7.43
2023-02-15T14:29:36.201Z,7.00
2023-02-15T14:32:36.584Z,6.57
2023-02-15T14:35:16.995Z,7.67
2023-02-15T14:38:01.833Z,7.30
2023-02-15T14:41:04.504Z,7.03
2023-02-15T14:44:08.320Z,6.33
2023-02-15T14:47:13.903Z,6.03
2023-02-15T14:49:45.776Z,6.97
2023-02-15T14:52:17.518Z,6.67
2023-02-15T14:54:49.181Z,7.17
2023-02-15T14:57:25.791Z,7.43
2023-02-15T15:00:00.216Z,5.90
2023-02-15T15:02:49.300Z,6.23
2023-02-15T15:05:25.023Z,6.60
2023-02-15T15:07:59.489Z,7.43
2023-02-15T15:10:47.488Z,6.33
2023-02-15T15:13:31.473Z,7.63
2023-02-15T15:16:26.771Z,7.07
2023-02-15T15:18:59.783Z,6.23
2023-02-15T15:21:49.926Z,6.43
2023-02-15T15:24:40.069Z,7.13
2023-02-15T15:27:41.201Z,6.63
2023-02-15T15:30:15.930Z,7.83
2023-02-15T15:32:50.606Z,7.90
2023-02-15T15:35:36.604Z,6.80
2023-02-15T15:38:35.869Z,7.40
2023-02-15T15:41:25.789Z,7.00
2023-02-15T15:44:19.027Z,6.90
2023-02-15T15:46:55.796Z,8.50
2023-02-15T15:49:33.567Z,7.37
2023-02-15T15:52:21.716Z,6.00
2023-02-15T15:54:59.476Z,7.70
2023-02-15T15:57:34.714Z,7.23
2023-02-15T16:00:40.439Z,7.17
2023-02-15T16:03:17.037Z,7.33
2023-02-15T16:05:53.756Z,7.37
2023-02-15T16:08:37.857Z,7.00
2023-02-15T16:11:20.083Z,8.63
2023-02-15T16:13:52.818Z,8.00
2023-02-15T16:16:30.387Z,7.97
2023-02-15T16:19:03.599Z,8.40
2023-02-15T16:21:37.301Z,6.67
2023-02-15T16:24:56.749Z,7.63
2023-02-15T16:27:42.845Z,7.03
2023-02-15T16:30:27.563Z,7.63
2023-02-15T16:33:16.898Z,7.13
2023-02-15T16:35:59.695Z,5.83
2023-02-15T16:38:43.427Z,6.00
2023-02-15T16:41:18.413Z,6.87
2023-02-15T16:43:51.695Z,7.90
2023-02-15T16:46:32.012Z,6.30
2023-02-15T16:49:12.557Z,7.23
2023-02-15T16:51:46.135Z,6.20
2023-02-15T16:54:21.833Z,8.73
2023-02-15T16:56:53.875Z,7.27
2023-02-15T16:59:46.018Z,8.27
2023-02-15T17:02:49.282Z,6.70
2023-02-15T17:05:20.851Z,5.70
2023-02-15T17:08:14.017Z,6.17
2023-02-15T17:11:07.492Z,7.60
2023-02-15T17:13:40.469Z,7.23
2023-02-15T17:16:32.551Z,7.30
2023-02-15T17:19:21.808Z,8.50
2023-02-15T17:21:59.514Z,8.17
2023-02-15T17:24:45.874Z,8.30
2023-02-15T17:27:19.784Z,7.90
2023-02-15T17:29:56.046Z,8.33
2023-02-15T17:32:30.738Z,7.17
2023-02-15T17:35:25.709Z,7.17
2023-02-15T17:38:03.418Z,7.37
2023-02-15T17:40:36.666Z,8.23
2023-02-15T17:43:08.462Z,8.90
2023-02-15T17:45:48.846Z,7.30
2023-02-15T17:48:36.429Z,6.30
2023-02-15T17:51:13.512Z,7.07
2023-02-15T17:54:05.631Z,7.53
2023-02-15T17:56:38.927Z,8.47
2023-02-15T17:59:12.383Z,8.97
2023-02-15T18:02:05.741Z,7.07
2023-02-15T18:08:34.898Z,7.40
2023-02-15T18:11:24.995Z,6.97
2023-02-15T18:14:01.236Z,7.10
2023-02-15T18:16:43.178Z,6.50
2023-02-15T18:19:19.734Z,7.10
2023-02-15T18:21:52.851Z,6.97
2023-02-15T18:24:26.499Z,8.40
2023-02-15T18:26:58.239Z,8.23
2023-02-15T18:29:29.940Z,8.87
2023-02-15T18:32:02.092Z,8.60
2023-02-15T18:34:38.148Z,8.87
2023-02-15T18:37:22.017Z,9.33
2023-02-15T18:39:54.489Z,7.40
2023-02-15T18:42:35.198Z,7.13
2023-02-15T18:45:19.207Z,9.43
2023-02-15T18:47:51.830Z,8.40
2023-02-15T18:51:28.338Z,9.37
2023-02-15T18:54:35.784Z,8.53
2023-02-15T19:00:28.326Z,8.33
2023-02-15T19:03:02.120Z,8.33
2023-02-15T19:05:33.959Z,8.87
2023-02-15T19:08:12.868Z,9.20
2023-02-15T19:10:45.172Z,9.57
2023-02-15T19:13:17.587Z,9.80
2023-02-15T19:15:49.283Z,9.00
2023-02-15T19:18:21.046Z,8.50
2023-02-15T19:20:52.779Z,9.77
2023-02-15T19:23:24.924Z,8.60
2023-02-15T19:25:56.747Z,9.10
2023-02-15T19:28:34.402Z,9.17
2023-02-15T19:31:06.239Z,8.80
2023-02-15T19:33:38.196Z,10.63
2023-02-15T19:36:17.973Z,10.20
2023-02-15T19:38:54.547Z,9.87
2023-02-15T19:41:34.324Z,9.40
2023-02-15T19:44:09.025Z,9.00
2023-02-15T19:46:41.663Z,9.20
2023-02-15T19:49:13.527Z,7.93
2023-02-15T19:51:45.603Z,7.53
2023-02-15T19:54:33.328Z,8.83
2023-02-15T19:57:05.090Z,9.57
2023-02-15T19:59:36.840Z,8.13
2023-02-15T20:02:14.518Z,7.77
2023-02-15T20:04:46.296Z,8.17
2023-02-15T20:07:28.139Z,8.13
2023-02-15T20:09:59.882Z,8.10
2023-02-15T20:12:31.618Z,10.00
2023-02-15T20:15:21.532Z,7.80
2023-02-15T20:17:54.496Z,9.13
2023-02-15T20:20:40.477Z,9.63
2023-02-15T20:23:35.493Z,9.17
2023-02-15T20:26:18.080Z,8.13
2023-02-15T20:28:50.015Z,8.97
2023-02-15T20:31:21.842Z,8.60
2023-02-15T20:33:53.693Z,8.03
2023-02-15T20:36:26.174Z,8.37
2023-02-15T20:39:01.123Z,8.97
2023-02-15T20:41:35.645Z,8.83
2023-02-15T20:44:27.681Z,8.87
2023-02-15T20:47:00.341Z,8.93
2023-02-15T20:49:32.188Z,8.87
2023-02-15T20:52:14.515Z,7.83
2023-02-15T20:54:46.439Z,8.60
2023-02-15T20:57:18.215Z,9.00
2023-02-15T20:59:49.933Z,7.40
2023-02-15T21:02:25.378Z,8.87
2023-02-15T21:04:57.208Z,8.93
2023-02-15T21:07:28.911Z,7.93
2023-02-15T21:10:01.061Z,9.33
2023-02-15T21:12:32.930Z,8.10
2023-02-15T21:15:36.629Z,9.70
2023-02-15T21:18:16.517Z,9.47
2023-02-15T21:20:51.463Z,8.00
2023-02-15T21:23:31.846Z,8.47
2023-02-15T21:26:04.452Z,9.57
2023-02-15T21:28:36.585Z,8.80
2023-02-15T21:31:23.095Z,9.47
2023-02-15T21:33:54.860Z,8.27
2023-02-15T21:36:27.683Z,9.40
2023-02-15T21:38:59.714Z,9.27
2023-02-15T21:41:50.562Z,8.43
2023-02-15T21:44:42.386Z,8.83
2023-02-15T21:47:40.937Z,11.40
2023-02-15T21:50:40.190Z,9.07
2023-02-15T21:53:34.050Z,7.57
2023-02-15T21:56:10.560Z,8.00
2023-02-15T21:58:42.303Z,8.90
2023-02-15T22:01:26.092Z,7.37
2023-02-15T22:03:59.159Z,8.93
2023-02-15T22:06:31.069Z,8.60
2023-02-15T22:09:02.764Z,10.07
2023-02-15T22:11:34.540Z,7.70
2023-02-15T22:14:06.400Z,8.13
2023-02-15T22:16:38.188Z,8.23
2023-02-15T22:19:11.882Z,6.67
2023-02-15T22:21:43.650Z,8.70
2023-02-15T22:24:15.434Z,6.87
2023-02-15T22:26:47.190Z,8.10
2023-02-15T22:29:19.092Z,9.27
2023-02-15T22:31:50.950Z,10.93
2023-02-15T22:34:24.726Z,9.47
2023-02-15T22:36:56.986Z,7.10
2023-02-15T22:39:28.691Z,8.70
2023-02-15T22:42:00.427Z,9.03
2023-02-15T22:44:35.310Z,9.33
2023-02-15T22:47:18.476Z,9.30
2023-02-15T22:49:50.590Z,8.83
2023-02-15T22:52:23.836Z,8.53
2023-02-15T22:54:55.521Z,9.00
2023-02-15T22:57:32.448Z,10.10
2023-02-15T23:00:06.242Z,7.77
2023-02-15T23:02:38.357Z,8.00
2023-02-15T23:05:22.741Z,9.17
2023-02-15T23:07:54.872Z,8.73
2023-02-15T23:10:28.815Z,9.03
2023-02-15T23:13:20.366Z,9.33
2023-02-15T23:15:58.125Z,8.47
2023-02-15T23:18:39.303Z,9.00
2023-02-15T23:21:21.631Z,8.40
2023-02-15T23:23:56.374Z,10.10
2023-02-15T23:26:33.738Z,8.43
2023-02-15T23:29:12.006Z,9.07
2023-02-15T23:31:46.485Z,8.47
2023-02-15T23:34:26.314Z,7.63
2023-02-15T23:36:58.141Z,8.37
2023-02-15T23:39:48.305Z,7.23
2023-02-15T23:42:24.752Z,9.20
2023-02-15T23:44:57.017Z,6.33
2023-02-15T23:47:52.843Z,8.10
2023-02-15T23:50:27.386Z,10.13
2023-02-15T23:52:59.525Z,8.07
2023-02-15T23:55:40.968Z,7.77
2023-02-15T23:58:21.326Z,8.90
